Time;durP1;ratioP1;P1;durP2;ratioP2;P2;SDS_P1;SDS_P2;PMS_P1;PMS_P2;Temp;Humidity;BMP_temperature;BMP_pressure;BME280_temperature;BME280_humidity;BME280_pressure;Samples;Min_cycle;Max_cycle;Signal;HPM_P1;HPM_P2
2022/07/19 00:00:11;;;;;;;2.50;2.23;;;26.70;36.00;;;;;;5125419;27;20906;-88
2022/07/19 00:02:38;;;;;;;3.23;2.50;;;26.70;35.30;;;;;;5106381;27;20457;-88
2022/07/19 00:05:07;;;;;;;2.87;2.53;;;26.60;35.60;;;;;;5108155;27;20443;-87
2022/07/19 00:07:34;;;;;;;13.13;2.97;;;26.60;36.30;;;;;;5104706;27;20464;-89
2022/07/19 00:10:53;;;;;;;5.00;2.60;;;26.50;35.60;;;;;;5105851;27;20460;-88
2022/07/19 00:13:47;;;;;;;2.73;2.53;;;26.20;34.80;;;;;;5124154;27;20528;-88
2022/07/19 00:16:14;;;;;;;6.10;2.67;;;26.20;35.20;;;;;;5096894;27;20442;-88
2022/07/19 00:22:22;;;;;;;6.53;2.67;;;26.20;35.80;;;;;;5135552;27;20437;-88
2022/07/19 00:24:49;;;;;;;6.70;2.90;;;26.10;36.10;;;;;;5122494;27;20457;-88
2022/07/19 00:27:16;;;;;;;4.60;3.00;;;26.10;36.90;;;;;;5119735;27;20440;-88
2022/07/19 00:29:45;;;;;;;4.60;2.60;;;26.00;37.80;;;;;;5119291;27;20444;-88
2022/07/19 00:32:12;;;;;;;3.00;2.67;;;26.00;38.30;;;;;;5141292;27;20477;-88
2022/07/19 00:34:39;;;;;;;3.10;2.90;;;26.00;38.20;;;;;;5121534;27;21112;-88
2022/07/19 00:37:06;;;;;;;3.50;2.63;;;25.90;37.80;;;;;;5122122;27;20444;-88
2022/07/19 00:39:33;;;;;;;2.90;2.53;;;25.90;37.60;;;;;;5103327;27;20455;-88
2022/07/19 00:42:00;;;;;;;9.83;2.40;;;25.80;37.70;;;;;;5107074;27;21160;-89
2022/07/19 00:44:27;;;;;;;6.33;2.77;;;25.70;37.60;;;;;;5105801;27;20453;-88
2022/07/19 00:46:55;;;;;;;3.70;2.20;;;25.70;37.60;;;;;;5123074;27;20468;-89
2022/07/19 00:49:22;;;;;;;2.80;2.60;;;25.70;38.10;;;;;;5120042;27;21204;-88
2022/07/19 00:56:23;;;;;;;3.63;2.10;;;25.60;37.60;;;;;;5133228;27;20516;-89
2022/07/19 00:58:51;;;;;;;2.30;2.10;;;25.50;37.70;;;;;;5108919;27;20441;-87
2022/07/19 01:01:18;;;;;;;2.73;2.53;;;25.40;37.90;;;;;;5121379;27;20464;-90
2022/07/19 01:03:48;;;;;;;3.20;2.80;;;25.40;37.80;;;;;;5099736;27;21140;-89
2022/07/19 01:06:15;;;;;;;6.00;2.63;;;25.40;38.00;;;;;;5138559;27;20456;-90
2022/07/19 01:08:42;;;;;;;4.53;3.10;;;25.40;38.20;;;;;;5098561;27;20449;-88
2022/07/19 01:11:09;;;;;;;4.73;2.70;;;25.30;38.70;;;;;;5087130;27;21087;-89
2022/07/19 01:13:36;;;;;;;5.27;3.00;;;25.30;39.00;;;;;;5085042;27;20473;-88
2022/07/19 01:24:18;;;;;;;3.73;2.60;;;25.10;39.00;;;;;;5103171;27;21329;-88
2022/07/19 01:26:45;;;;;;;2.57;2.37;;;24.90;40.00;;;;;;5106916;27;20463;-89
2022/07/19 01:29:15;;;;;;;4.43;2.67;;;24.90;39.90;;;;;;5105965;27;20471;-89
2022/07/19 01:31:43;;;;;;;3.37;2.77;;;24.90;39.60;;;;;;5100729;27;20472;-89
2022/07/19 01:34:10;;;;;;;3.77;2.83;;;24.90;39.60;;;;;;5087214;27;20480;-90
2022/07/19 01:36:37;;;;;;;12.77;2.97;;;24.80;39.40;;;;;;5121462;27;20460;-89
2022/07/19 01:39:04;;;;;;;3.60;2.50;;;24.80;39.90;;;;;;5108527;27;20821;-90
2022/07/19 01:41:32;;;;;;;2.93;2.60;;;24.70;40.50;;;;;;5125581;27;20457;-88
2022/07/19 01:43:59;;;;;;;3.37;2.77;;;24.70;40.80;;;;;;5107654;27;20444;-88
2022/07/19 01:46:26;;;;;;;3.50;3.13;;;24.70;41.00;;;;;;5118735;27;20446;-88
2022/07/19 01:48:53;;;;;;;3.10;2.80;;;24.60;41.10;;;;;;5123083;27;20482;-88
2022/07/19 01:51:20;;;;;;;4.33;2.57;;;24.60;40.90;;;;;;5104990;27;20472;-89
2022/07/19 01:53:47;;;;;;;3.47;2.27;;;24.60;40.10;;;;;;5122454;27;20472;-88
2022/07/19 01:56:14;;;;;;;2.90;2.53;;;24.50;39.90;;;;;;5130105;27;20987;-87
2022/07/19 01:58:42;;;;;;;7.40;2.30;;;24.50;40.00;;;;;;5109572;27;20474;-89
2022/07/19 02:01:09;;;;;;;3.37;3.10;;;24.40;40.40;;;;;;5142328;27;20472;-88
2022/07/19 02:03:36;;;;;;;2.83;2.63;;;24.40;40.50;;;;;;5141710;27;20494;-89
2022/07/19 02:06:03;;;;;;;3.83;2.53;;;24.30;40.50;;;;;;5104873;27;20453;-89
2022/07/19 02:08:30;;;;;;;2.70;2.50;;;24.30;40.60;;;;;;5124111;27;20448;-88
2022/07/19 02:10:58;;;;;;;4.47;2.70;;;24.30;41.00;;;;;;5123326;27;20464;-89
2022/07/19 02:13:26;;;;;;;2.50;2.30;;;24.10;40.90;;;;;;5108674;27;20565;-89
2022/07/19 02:15:54;;;;;;;2.50;2.30;;;24.10;40.80;;;;;;5144835;27;20455;-89
2022/07/19 02:18:21;;;;;;;4.40;2.90;;;24.10;40.70;;;;;;5140112;27;20911;-88
2022/07/19 02:20:48;;;;;;;8.00;2.80;;;24.10;40.60;;;;;;5099691;27;20473;-89
2022/07/19 02:23:15;;;;;;;3.10;2.80;;;24.10;40.40;;;;;;5097175;27;20479;-89
2022/07/19 02:25:41;;;;;;;4.30;2.63;;;24.10;40.40;;;;;;5123667;27;20891;-88
2022/07/19 02:28:08;;;;;;;3.03;2.83;;;24.00;40.40;;;;;;5120059;27;20486;-89
2022/07/19 02:30:35;;;;;;;5.40;3.00;;;24.00;40.40;;;;;;5129177;27;20568;-88
2022/07/19 02:39:37;;;;;;;2.93;2.73;;;23.80;41.40;;;;;;5129963;27;20481;-89
2022/07/19 02:42:04;;;;;;;7.07;3.00;;;23.70;42.00;;;;;;5148925;27;20464;-88
2022/07/19 02:44:31;;;;;;;3.60;3.00;;;23.70;42.20;;;;;;5130438;27;20443;-88
2022/07/19 02:46:58;;;;;;;3.43;3.13;;;23.70;42.30;;;;;;5145417;27;20456;-88
2022/07/19 02:49:26;;;;;;;4.90;3.10;;;23.70;42.90;;;;;;5135328;27;21262;-89
2022/07/19 02:52:43;;;;;;;3.20;2.90;;;23.70;42.50;;;;;;5145631;27;20475;-89
2022/07/19 02:56:00;;;;;;;5.07;2.60;;;23.70;41.90;;;;;;5144242;27;20469;-88
2022/07/19 02:58:27;;;;;;;5.23;3.20;;;23.60;42.00;;;;;;5125363;27;20451;-90
2022/07/19 03:00:54;;;;;;;3.90;2.50;;;23.50;42.50;;;;;;5133037;27;21243;-89
2022/07/19 03:06:07;;;;;;;4.30;2.80;;;23.30;42.80;;;;;;5112999;27;20456;-87
2022/07/19 03:08:34;;;;;;;6.00;2.93;;;23.20;43.40;;;;;;5142929;27;20680;-89
2022/07/19 03:11:01;;;;;;;3.17;2.60;;;23.30;43.60;;;;;;5142947;27;20464;-88
2022/07/19 03:13:28;;;;;;;3.60;2.70;;;23.30;43.40;;;;;;5121173;27;20820;-88
2022/07/19 03:20:03;;;;;;;5.00;3.13;;;23.30;43.60;;;;;;5144315;27;20976;-85
2022/07/19 03:22:32;;;;;;;3.50;2.67;;;23.20;43.80;;;;;;5087314;27;20448;-86
2022/07/19 03:24:59;;;;;;;3.23;2.93;;;23.10;43.80;;;;;;5141253;27;20453;-87
2022/07/19 03:27:26;;;;;;;6.80;3.47;;;23.10;44.00;;;;;;5133134;27;20488;-86
2022/07/19 03:29:52;;;;;;;2.73;2.53;;;23.10;44.10;;;;;;5147268;27;20816;-84
2022/07/19 03:32:19;;;;;;;3.83;2.70;;;23.00;44.20;;;;;;5127892;27;20956;-86
2022/07/19 03:34:46;;;;;;;3.03;2.80;;;23.00;44.40;;;;;;5145898;27;20461;-85
2022/07/19 03:37:13;;;;;;;2.30;2.10;;;23.00;45.00;;;;;;5129846;27;20452;-86
2022/07/19 03:39:41;;;;;;;3.10;2.83;;;23.00;44.90;;;;;;5133033;27;20471;-86
2022/07/19 03:42:34;;;;;;;3.53;2.70;;;23.00;44.90;;;;;;5129670;27;20493;-86
2022/07/19 03:45:01;;;;;;;3.40;3.10;;;23.00;44.40;;;;;;5146497;27;20491;-86
2022/07/19 03:47:28;;;;;;;3.93;2.70;;;22.90;44.50;;;;;;5136459;27;20448;-86
2022/07/19 03:49:57;;;;;;;5.00;3.07;;;22.80;44.50;;;;;;5129546;27;20444;-86
2022/07/19 03:52:24;;;;;;;4.63;2.50;;;22.80;44.80;;;;;;5139463;27;21473;-87
2022/07/19 03:54:52;;;;;;;2.90;2.60;;;22.80;44.80;;;;;;5149418;27;21166;-86
2022/07/19 03:57:19;;;;;;;4.00;3.13;;;22.70;44.70;;;;;;5138680;27;20440;-86
2022/07/19 03:59:46;;;;;;;3.27;2.70;;;22.70;45.20;;;;;;5112195;27;20472;-85
2022/07/19 04:02:16;;;;;;;3.03;2.67;;;22.70;45.50;;;;;;5141099;27;21235;-86
2022/07/19 04:04:43;;;;;;;4.50;3.00;;;22.60;45.40;;;;;;5145810;27;20453;-86
2022/07/19 04:07:10;;;;;;;6.17;3.70;;;22.60;45.10;;;;;;5147463;27;20448;-87
2022/07/19 04:13:20;;;;;;;4.60;3.30;;;22.60;45.90;;;;;;5122121;27;20502;-86
2022/07/19 04:15:47;;;;;;;3.60;3.30;;;22.50;45.90;;;;;;5110889;27;20453;-87
2022/07/19 04:18:16;;;;;;;4.60;3.30;;;22.60;45.80;;;;;;5109719;27;20456;-85
2022/07/19 04:20:43;;;;;;;2.87;2.63;;;22.50;45.90;;;;;;5128046;27;20469;-86
2022/07/19 04:23:10;;;;;;;3.23;2.63;;;22.50;46.20;;;;;;5146943;27;20445;-86
2022/07/19 04:25:37;;;;;;;4.60;3.20;;;22.50;46.10;;;;;;5142582;27;20442;-86
2022/07/19 04:28:05;;;;;;;4.37;3.00;;;22.50;46.30;;;;;;5127586;27;20429;-87
2022/07/19 04:30:34;;;;;;;6.00;3.07;;;22.50;46.20;;;;;;5133806;27;20551;-86
2022/07/19 04:39:33;;;;;;;4.17;3.53;;;22.50;47.20;;;;;;5148420;27;20453;-87
2022/07/19 04:41:59;;;;;;;4.30;3.30;;;22.50;47.10;;;;;;5144625;27;21136;-86
2022/07/19 04:44:26;;;;;;;6.67;4.17;;;22.50;47.10;;;;;;5128939;27;20440;-87
2022/07/19 04:46:55;;;;;;;7.53;3.30;;;22.50;47.20;;;;;;5111180;27;20449;-86
2022/07/19 04:49:22;;;;;;;3.40;2.90;;;22.40;47.30;;;;;;5138297;27;20459;-86
2022/07/19 04:52:39;;;;;;;5.30;3.17;;;22.50;47.20;;;;;;5107014;27;21465;-86
2022/07/19 04:55:57;;;;;;;4.57;3.47;;;22.50;47.00;;;;;;5145757;27;20437;-86
2022/07/19 04:58:24;;;;;;;5.33;3.70;;;22.50;46.90;;;;;;5132427;27;20473;-86
2022/07/19 05:00:51;;;;;;;3.90;3.50;;;22.50;46.80;;;;;;5143914;27;20834;-85
2022/07/19 05:07:28;;;;;;;4.97;4.00;;;22.40;47.20;;;;;;5147245;27;20456;-87
2022/07/19 05:14:02;;;;;;;3.73;3.43;;;22.50;46.60;;;;;;5125397;27;20478;-86
2022/07/19 05:17:45;;;;;;;7.60;3.00;;;22.50;46.60;;;;;;5130635;27;20441;-86
2022/07/19 05:24:43;;;;;;;5.37;3.00;;;22.60;47.10;;;;;;5108692;27;21390;-87
2022/07/19 05:27:10;;;;;;;4.27;3.30;;;22.50;46.90;;;;;;5127878;27;20475;-87
2022/07/19 05:29:37;;;;;;;4.60;3.80;;;22.50;47.10;;;;;;5144169;27;20457;-86
2022/07/19 05:32:05;;;;;;;4.80;3.50;;;22.60;47.00;;;;;;5144958;27;20496;-86
2022/07/19 05:34:57;;;;;;;6.73;3.70;;;22.70;47.00;;;;;;5132434;27;20468;-86
2022/07/19 05:37:24;;;;;;;5.77;3.70;;;22.80;46.90;;;;;;5141308;27;20455;-86
2022/07/19 05:39:52;;;;;;;3.80;3.40;;;22.90;47.20;;;;;;5111104;27;20437;-86
2022/07/19 05:42:19;;;;;;;4.03;3.07;;;22.90;47.10;;;;;;5141325;27;20852;-86
2022/07/19 05:44:46;;;;;;;3.07;2.77;;;22.90;47.10;;;;;;5127399;27;20925;-87
2022/07/19 05:47:13;;;;;;;6.57;3.33;;;22.90;47.60;;;;;;5140060;27;20493;-86
2022/07/19 05:49:40;;;;;;;3.90;3.50;;;23.10;47.40;;;;;;5129953;27;20459;-87
2022/07/19 05:52:32;;;;;;;8.50;3.77;;;23.20;46.60;;;;;;5140832;27;21164;-85
2022/07/19 05:55:00;;;;;;;12.00;3.40;;;23.30;46.60;;;;;;5144102;27;20469;-87
2022/07/19 05:57:27;;;;;;;4.23;3.13;;;23.20;47.20;;;;;;5142430;27;20450;-86
2022/07/19 05:59:54;;;;;;;3.10;2.63;;;23.40;46.10;;;;;;5143821;27;21165;-87
2022/07/19 06:02:22;;;;;;;4.60;2.90;;;23.30;46.40;;;;;;5139322;27;20449;-88
2022/07/19 06:04:48;;;;;;;3.17;2.90;;;23.30;46.10;;;;;;5124021;27;20437;-88
2022/07/19 06:07:15;;;;;;;4.83;3.40;;;23.30;45.80;;;;;;5095545;27;20448;-89
2022/07/19 06:09:42;;;;;;;7.30;3.03;;;23.30;45.80;;;;;;5103781;27;20449;-91
2022/07/19 06:12:14;;;;;;;15.77;4.30;;;23.70;45.60;;;;;;5106312;27;20460;-88
2022/07/19 06:14:41;;;;;;;5.00;3.40;;;24.00;45.10;;;;;;5142828;27;20684;-89
2022/07/19 06:17:08;;;;;;;6.60;3.60;;;24.30;44.80;;;;;;5101347;27;20444;-89
2022/07/19 06:19:35;;;;;;;5.50;3.10;;;24.50;44.00;;;;;;5101709;27;20457;-88
2022/07/19 06:22:02;;;;;;;3.70;2.67;;;24.60;44.00;;;;;;5117830;27;20477;-88
2022/07/19 06:24:29;;;;;;;10.43;3.33;;;24.60;43.60;;;;;;5114237;27;20452;-89
2022/07/19 06:27:47;;;;;;;8.87;3.70;;;24.60;43.00;;;;;;5121019;27;20764;-89
2022/07/19 06:31:29;;;;;;;9.43;3.47;;;24.50;43.00;;;;;;5138154;27;21151;-89
2022/07/19 06:33:57;;;;;;;6.80;4.00;;;24.80;42.50;;;;;;5101308;27;20469;-90
2022/07/19 06:36:24;;;;;;;4.47;3.30;;;25.00;41.60;;;;;;5109592;27;20438;-88
2022/07/19 06:38:51;;;;;;;9.57;4.70;;;25.00;42.60;;;;;;5140692;27;20447;-87
2022/07/19 06:41:18;;;;;;;5.27;3.50;;;25.30;42.20;;;;;;5098135;27;20480;-88
2022/07/19 06:43:45;;;;;;;4.53;3.40;;;25.20;39.90;;;;;;5102429;27;20459;-88
2022/07/19 06:46:12;;;;;;;15.00;3.90;;;25.20;41.60;;;;;;5129313;27;20775;-88
2022/07/19 06:48:39;;;;;;;3.63;3.33;;;25.50;40.90;;;;;;5102981;27;20453;-88
2022/07/19 06:51:57;;;;;;;3.77;3.33;;;25.50;40.30;;;;;;5120285;27;20461;-88
2022/07/19 06:55:20;;;;;;;7.27;2.90;;;25.60;41.00;;;;;;5119947;27;20453;-88
2022/07/19 06:57:47;;;;;;;7.53;3.10;;;26.10;40.30;;;;;;5141551;27;20441;-88
2022/07/19 07:00:15;;;;;;;8.50;3.97;;;25.80;39.80;;;;;;5102628;27;22020;-88
2022/07/19 07:02:42;;;;;;;7.40;3.50;;;25.90;39.80;;;;;;5108278;27;20818;-88
2022/07/19 07:05:11;;;;;;;3.67;3.37;;;26.10;40.00;;;;;;5104865;27;20627;-88
2022/07/19 07:07:39;;;;;;;3.20;3.00;;;26.20;39.60;;;;;;5110668;27;20448;-88
2022/07/19 07:10:08;;;;;;;9.33;3.93;;;26.40;38.90;;;;;;5104333;27;20440;-87
2022/07/19 07:12:36;;;;;;;7.10;3.40;;;26.20;38.70;;;;;;5118686;27;22225;-89
2022/07/19 07:15:04;;;;;;;3.00;2.80;;;26.10;39.20;;;;;;5138834;27;20471;-88
2022/07/19 07:17:31;;;;;;;7.07;3.40;;;26.00;39.50;;;;;;5141867;27;20429;-88
2022/07/19 07:19:58;;;;;;;6.03;3.30;;;26.20;39.50;;;;;;5144398;27;20596;-88
2022/07/19 07:22:25;;;;;;;9.97;3.90;;;26.50;39.50;;;;;;5118939;27;20959;-89
2022/07/19 07:24:52;;;;;;;8.33;4.03;;;26.80;38.50;;;;;;5124704;27;20468;-89
2022/07/19 07:31:03;;;;;;;8.60;3.33;;;27.20;37.80;;;;;;5142603;27;20505;-90
2022/07/19 07:33:30;;;;;;;7.63;3.20;;;27.40;37.30;;;;;;5122346;27;20466;-89
2022/07/19 07:35:57;;;;;;;7.07;3.20;;;27.30;37.10;;;;;;5122592;27;20544;-88
2022/07/19 07:38:23;;;;;;;7.63;3.80;;;27.50;36.60;;;;;;5120347;27;20837;-87
2022/07/19 07:40:50;;;;;;;6.60;3.50;;;27.90;36.60;;;;;;5082314;27;20467;-88
2022/07/19 07:43:17;;;;;;;9.70;3.43;;;28.10;36.50;;;;;;5140256;27;20461;-89
2022/07/19 07:45:45;;;;;;;4.60;3.33;;;28.40;36.70;;;;;;5139161;27;20536;-87
2022/07/19 07:48:15;;;;;;;9.53;3.57;;;28.60;36.10;;;;;;5104233;27;20449;-89
2022/07/19 07:54:50;;;;;;;4.90;3.03;;;28.70;35.30;;;;;;5106518;27;21101;-88
2022/07/19 07:57:17;;;;;;;12.23;3.73;;;28.50;35.40;;;;;;5140515;27;20451;-90
2022/07/19 07:59:44;;;;;;;8.33;3.70;;;28.50;35.60;;;;;;5124829;27;21276;-90
2022/07/19 08:02:38;;;;;;;11.53;3.27;;;28.70;35.50;;;;;;5126005;27;20460;-90
2022/07/19 08:08:49;;;;;;;5.43;4.00;;;29.20;34.70;;;;;;5108589;27;20428;-90
2022/07/19 08:11:16;;;;;;;7.67;3.60;;;29.40;34.10;;;;;;5086122;27;20475;-90
2022/07/19 08:13:43;;;;;;;11.20;3.53;;;29.60;34.60;;;;;;5084466;27;20449;-88
2022/07/19 08:16:35;;;;;;;9.73;4.27;;;29.90;33.80;;;;;;5121208;27;20877;-90
2022/07/19 08:22:46;;;;;;;5.53;3.37;;;30.20;33.00;;;;;;5140250;27;20504;-89
2022/07/19 08:25:16;;;;;;;8.80;3.57;;;30.40;33.20;;;;;;5120319;27;20482;-89
2022/07/19 08:28:34;;;;;;;4.93;3.43;;;30.50;31.60;;;;;;5087195;27;20484;-88
2022/07/19 08:31:01;;;;;;;7.83;3.63;;;30.70;31.90;;;;;;5121676;27;20870;-89
2022/07/19 08:33:28;;;;;;;20.07;3.77;;;30.80;31.70;;;;;;5115561;27;20579;-89
2022/07/19 08:35:55;;;;;;;12.47;4.00;;;30.90;31.50;;;;;;5132466;27;20505;-89
2022/07/19 08:38:22;;;;;;;4.67;3.70;;;31.00;32.00;;;;;;5118721;27;20453;-88
2022/07/19 08:40:53;;;;;;;3.97;3.67;;;31.20;31.30;;;;;;5121898;27;20475;-88
2022/07/19 08:44:11;;;;;;;4.33;3.30;;;31.40;31.50;;;;;;5097114;27;21030;-89
2022/07/19 08:46:42;;;;;;;4.33;3.00;;;31.60;30.80;;;;;;5120208;27;20449;-90
2022/07/19 08:49:10;;;;;;;5.10;3.40;;;31.80;30.30;;;;;;5120476;27;20844;-91
2022/07/19 08:51:37;;;;;;;3.87;3.00;;;31.80;30.20;;;;;;5141318;27;21067;-90
2022/07/19 08:59:42;;;;;;;3.50;3.20;;;32.30;29.00;;;;;;5043081;27;21154;-89
2022/07/19 09:02:34;;;;;;;13.00;3.37;;;32.50;29.50;;;;;;5140183;27;20490;-90
2022/07/19 09:05:01;;;;;;;4.27;3.77;;;32.80;30.00;;;;;;5124858;27;20444;-89
2022/07/19 09:07:28;;;;;;;9.10;3.27;;;33.00;28.30;;;;;;5138446;27;20463;-89
2022/07/19 09:10:15;;;;;;;3.20;3.00;;;33.10;28.10;;;;;;5141833;27;20467;-88
2022/07/19 09:13:02;;;;;;;5.60;3.40;;;33.30;28.20;;;;;;5122509;27;20536;-88
2022/07/19 09:18:42;;;;;;;9.97;3.30;;;33.80;28.00;;;;;;5121170;27;20449;-91
2022/07/19 09:21:09;;;;;;;4.20;2.73;;;33.90;27.60;;;;;;5102562;27;20494;-90
2022/07/19 09:23:41;;;;;;;5.47;2.90;;;34.00;27.00;;;;;;5105270;27;20613;-89
2022/07/19 09:26:34;;;;;;;2.90;2.63;;;34.20;26.50;;;;;;5104419;27;20466;-88
2022/07/19 09:29:17;;;;;;;6.10;3.07;;;34.30;26.00;;;;;;5122369;27;20453;-90
2022/07/19 09:31:59;;;;;;;8.40;3.00;;;34.50;26.50;;;;;;5142079;27;20480;-89
2022/07/19 09:34:30;;;;;;;3.13;2.83;;;34.60;26.30;;;;;;5102567;27;20809;-87
2022/07/19 09:37:18;;;;;;;12.87;3.03;;;34.80;25.70;;;;;;5133583;27;20965;-89
2022/07/19 09:39:47;;;;;;;4.20;2.67;;;34.90;25.50;;;;;;5103850;27;20805;-88
2022/07/19 09:42:17;;;;;;;5.37;2.70;;;35.00;24.70;;;;;;5103907;27;20479;-87
2022/07/19 09:44:46;;;;;;;6.93;2.70;;;35.30;25.10;;;;;;5096859;27;20445;-88
2022/07/19 09:47:14;;;;;;;6.83;2.60;;;35.40;25.10;;;;;;5112044;27;20454;-88
2022/07/19 09:49:41;;;;;;;3.80;2.80;;;35.50;24.30;;;;;;5124425;27;20456;-88
2022/07/19 09:52:34;;;;;;;3.10;2.80;;;35.70;22.60;;;;;;5085970;27;20491;-87
2022/07/19 09:55:04;;;;;;;5.90;2.90;;;35.30;23.40;;;;;;5118094;27;20967;-88
2022/07/19 09:58:22;;;;;;;6.40;2.57;;;35.20;23.30;;;;;;5081094;27;20532;-89
2022/07/19 10:00:51;;;;;;;2.63;2.40;;;35.30;23.90;;;;;;5120369;27;20520;-87
2022/07/19 10:03:19;;;;;;;4.97;2.87;;;36.00;24.90;;;;;;5106431;27;21019;-88
2022/07/19 10:05:46;;;;;;;5.70;2.73;;;36.50;22.20;;;;;;5102761;27;20445;-89
2022/07/19 10:08:13;;;;;;;3.50;2.30;;;36.60;21.30;;;;;;5104260;27;20471;-89
2022/07/19 10:10:40;;;;;;;2.50;2.23;;;36.80;21.10;;;;;;5112240;27;20476;-89
2022/07/19 10:13:08;;;;;;;2.93;2.73;;;37.00;22.00;;;;;;5141936;27;20448;-88
2022/07/19 10:15:40;;;;;;;2.77;2.20;;;37.30;24.60;;;;;;5118833;27;20669;-88
2022/07/19 10:18:38;;;;;;;5.90;2.80;;;37.40;21.50;;;;;;5109109;27;21226;-91
2022/07/19 10:21:05;;;;;;;2.67;2.10;;;36.80;20.80;;;;;;5086271;27;20464;-88
2022/07/19 10:23:34;;;;;;;2.33;2.20;;;37.00;21.10;;;;;;5133752;27;21838;-87
2022/07/19 10:26:02;;;;;;;2.87;2.40;;;37.40;20.20;;;;;;5122596;27;20444;-90
2022/07/19 10:29:07;;;;;;;3.63;2.53;;;37.30;19.80;;;;;;5120060;27;20970;-89
2022/07/19 10:31:35;;;;;;;3.10;2.60;;;37.40;20.00;;;;;;5101256;27;21007;-88
2022/07/19 10:36:56;;;;;;;2.80;2.57;;;37.90;19.50;;;;;;5121704;27;20475;-88
2022/07/19 10:40:14;;;;;;;3.90;2.60;;;38.00;19.80;;;;;;5103218;27;20541;-89
2022/07/19 10:43:06;;;;;;;2.40;2.23;;;38.10;19.20;;;;;;5139125;27;21139;-88
2022/07/19 10:45:33;;;;;;;2.90;2.27;;;37.90;19.40;;;;;;5140470;27;20455;-89
2022/07/19 10:48:12;;;;;;;2.60;2.37;;;37.70;19.20;;;;;;5138707;27;20444;-89
2022/07/19 10:50:49;;;;;;;5.57;2.60;;;37.70;20.00;;;;;;5123180;27;20483;-89
2022/07/19 10:54:02;;;;;;;4.93;2.37;;;37.80;19.40;;;;;;5126868;27;20445;-89
2022/07/19 10:56:59;;;;;;;3.53;2.13;;;37.80;18.60;;;;;;5104691;27;20461;-89
2022/07/19 10:59:42;;;;;;;6.87;2.80;;;38.20;19.10;;;;;;5121057;27;20465;-89
2022/07/19 11:02:34;;;;;;;4.03;2.50;;;38.20;19.10;;;;;;5123482;27;20468;-89
2022/07/19 11:05:01;;;;;;;2.87;2.67;;;38.10;20.00;;;;;;5139205;27;21257;-88
2022/07/19 11:07:29;;;;;;;6.90;2.50;;;38.20;18.50;;;;;;5138261;27;20453;-89
2022/07/19 11:09:58;;;;;;;7.90;2.47;;;37.90;19.80;;;;;;5044462;27;20508;-89
2022/07/19 11:12:35;;;;;;;2.90;2.27;;;38.10;19.20;;;;;;5120067;27;20448;-88
2022/07/19 11:15:06;;;;;;;3.13;2.80;;;37.90;19.90;;;;;;5139339;27;20471;-91
2022/07/19 11:17:33;;;;;;;2.30;2.10;;;38.00;19.50;;;;;;5124549;27;20472;-90
2022/07/19 11:20:04;;;;;;;2.60;2.40;;;38.20;19.50;;;;;;5114718;27;20448;-90
2022/07/19 11:23:00;;;;;;;2.73;2.53;;;38.30;19.30;;;;;;5141029;27;20452;-89
2022/07/19 11:25:30;;;;;;;6.20;2.80;;;38.40;19.10;;;;;;5137263;27;20452;-90
2022/07/19 11:34:13;;;;;;;2.50;2.30;;;38.40;19.60;;;;;;5139210;27;20498;-90
2022/07/19 11:36:40;;;;;;;4.63;2.63;;;38.40;18.40;;;;;;5142409;27;20891;-90
2022/07/19 11:39:08;;;;;;;3.37;2.50;;;38.50;18.80;;;;;;5104054;27;20453;-89
2022/07/19 11:41:35;;;;;;;4.43;2.17;;;38.80;19.30;;;;;;5138507;27;20477;-90
2022/07/19 11:46:57;;;;;;;3.23;2.30;;;38.80;18.50;;;;;;5138620;27;20440;-88
2022/07/19 11:49:24;;;;;;;3.93;2.47;;;38.90;18.20;;;;;;5082750;27;20449;-90
2022/07/19 11:51:59;;;;;;;6.73;2.60;;;39.10;18.60;;;;;;5121154;27;20476;-89
2022/07/19 11:54:27;;;;;;;6.10;2.90;;;39.30;17.70;;;;;;5099894;27;20449;-90
2022/07/19 11:56:54;;;;;;;7.40;2.87;;;39.30;18.20;;;;;;5140689;27;20480;-90
2022/07/19 11:59:21;;;;;;;6.07;2.80;;;39.50;17.90;;;;;;5119402;27;20457;-88
2022/07/19 12:01:48;;;;;;;3.13;2.83;;;39.60;17.20;;;;;;5121290;27;20505;-90
2022/07/19 12:04:16;;;;;;;2.90;2.70;;;39.80;18.00;;;;;;5120067;27;20453;-87
2022/07/19 12:06:45;;;;;;;2.90;2.60;;;40.00;17.80;;;;;;5121400;27;20468;-90
2022/07/19 12:09:15;;;;;;;3.13;2.83;;;40.10;17.20;;;;;;5120817;27;20456;-91
2022/07/19 12:11:45;;;;;;;5.00;2.50;;;40.10;16.10;;;;;;5089352;27;20563;-90
2022/07/19 12:14:20;;;;;;;3.03;2.73;;;40.30;16.50;;;;;;5116766;27;21215;-89
2022/07/19 12:16:48;;;;;;;5.77;2.77;;;40.10;16.00;;;;;;5122462;27;20461;-90
2022/07/19 12:19:19;;;;;;;5.07;2.57;;;40.00;16.80;;;;;;5120020;27;20437;-89
2022/07/19 12:21:47;;;;;;;2.97;2.70;;;39.90;16.40;;;;;;5096243;27;20464;-89
2022/07/19 12:24:17;;;;;;;6.27;2.60;;;40.00;16.50;;;;;;5113791;27;21002;-91
2022/07/19 12:26:58;;;;;;;4.20;3.10;;;40.10;17.40;;;;;;5120842;27;20476;-91
2022/07/19 12:29:28;;;;;;;5.53;2.70;;;40.10;16.80;;;;;;5108912;27;20471;-90
2022/07/19 12:32:27;;;;;;;3.27;2.97;;;40.40;16.60;;;;;;5080681;27;20479;-88
2022/07/19 12:34:58;;;;;;;2.90;2.67;;;40.40;17.40;;;;;;5139980;27;20448;-89
2022/07/19 12:37:26;;;;;;;3.93;2.67;;;40.60;16.50;;;;;;5093730;27;20504;-90
2022/07/19 12:40:20;;;;;;;8.70;2.97;;;40.70;16.20;;;;;;5119624;27;20486;-87
2022/07/19 12:42:50;;;;;;;3.40;2.80;;;40.70;16.10;;;;;;5120556;27;20585;-87
2022/07/19 12:45:19;;;;;;;3.87;3.00;;;40.50;16.10;;;;;;5134801;27;20834;-87
2022/07/19 12:47:47;;;;;;;4.23;2.87;;;40.40;16.10;;;;;;5121155;27;20467;-88
2022/07/19 12:50:21;;;;;;;5.30;2.60;;;40.50;16.00;;;;;;5134856;27;20461;-88
2022/07/19 12:52:48;;;;;;;3.80;3.20;;;40.70;15.90;;;;;;5119570;27;20445;-87
2022/07/19 12:55:15;;;;;;;3.10;2.90;;;40.40;15.40;;;;;;5138878;27;20789;-85
2022/07/19 12:57:42;;;;;;;10.53;2.60;;;40.20;15.80;;;;;;5103875;27;20452;-87
2022/07/19 13:00:15;;;;;;;4.30;2.83;;;40.40;15.80;;;;;;5116136;27;20451;-88
2022/07/19 13:02:42;;;;;;;3.33;2.93;;;40.40;16.10;;;;;;5101027;27;20449;-86
2022/07/19 13:05:09;;;;;;;2.63;2.43;;;40.40;16.20;;;;;;5099760;27;20448;-85
2022/07/19 13:07:39;;;;;;;4.30;2.80;;;40.40;16.70;;;;;;5134876;27;21078;-87
2022/07/19 13:10:08;;;;;;;3.40;3.10;;;40.50;16.30;;;;;;5136446;27;20479;-83
2022/07/19 13:13:00;;;;;;;3.83;2.87;;;40.60;15.30;;;;;;5138801;27;20448;-87
2022/07/19 13:15:28;;;;;;;3.50;2.77;;;40.20;15.20;;;;;;5131517;27;20861;-86
2022/07/19 13:17:55;;;;;;;4.50;3.67;;;40.30;16.20;;;;;;5119222;27;20452;-86
2022/07/19 13:20:22;;;;;;;4.17;2.97;;;40.70;16.00;;;;;;5137562;27;20476;-87
2022/07/19 13:22:49;;;;;;;2.70;2.50;;;40.70;14.70;;;;;;5103755;27;21533;-86
2022/07/19 13:25:16;;;;;;;3.90;3.20;;;40.80;15.30;;;;;;5136369;27;20932;-87
2022/07/19 13:27:43;;;;;;;3.70;3.00;;;40.70;14.70;;;;;;5097728;27;20505;-88
2022/07/19 13:30:37;;;;;;;6.10;2.77;;;40.60;14.80;;;;;;5132131;27;20448;-87
2022/07/19 13:33:04;;;;;;;3.70;3.40;;;40.80;15.10;;;;;;5138620;27;20975;-87
2022/07/19 13:35:31;;;;;;;4.27;2.50;;;41.00;15.50;;;;;;5133523;27;20479;-86
2022/07/19 13:37:59;;;;;;;3.30;2.90;;;41.20;15.20;;;;;;5135941;27;21206;-86
2022/07/19 13:40:26;;;;;;;5.37;3.40;;;41.10;15.10;;;;;;5113095;27;20472;-86
2022/07/19 13:42:54;;;;;;;4.77;2.77;;;40.90;14.30;;;;;;5121741;27;20449;-86
2022/07/19 13:45:21;;;;;;;4.90;2.80;;;41.00;14.90;;;;;;5137098;27;20449;-87
2022/07/19 13:47:50;;;;;;;6.97;3.03;;;41.20;15.00;;;;;;5137472;27;20461;-86
2022/07/19 13:50:17;;;;;;;4.10;2.80;;;41.50;15.20;;;;;;5132371;27;20484;-87
2022/07/19 13:52:44;;;;;;;3.87;3.03;;;40.90;14.30;;;;;;5127919;27;20443;-87
2022/07/19 13:55:11;;;;;;;4.10;2.80;;;40.30;15.10;;;;;;5136615;27;20437;-86
2022/07/19 13:57:38;;;;;;;4.00;2.50;;;40.30;15.80;;;;;;5123245;27;20468;-88
2022/07/19 14:00:31;;;;;;;5.60;2.43;;;40.70;16.00;;;;;;5106842;27;20952;-87
2022/07/19 14:02:59;;;;;;;4.43;2.57;;;40.70;15.30;;;;;;5097664;27;20796;-87
2022/07/19 14:09:36;;;;;;;2.93;2.73;;;41.10;15.60;;;;;;5139387;27;20463;-86
2022/07/19 14:12:53;;;;;;;4.77;3.10;;;41.30;14.60;;;;;;5119053;27;20484;-88
2022/07/19 14:16:13;;;;;;;7.27;2.80;;;41.20;15.20;;;;;;5137989;27;20535;-86
2022/07/19 14:18:41;;;;;;;2.90;2.40;;;41.20;15.10;;;;;;5104205;27;20441;-89
2022/07/19 14:21:08;;;;;;;5.00;2.53;;;40.90;15.60;;;;;;5101441;27;20468;-87
2022/07/19 14:23:35;;;;;;;3.33;2.57;;;41.10;14.80;;;;;;5103876;27;20457;-87
2022/07/19 14:26:02;;;;;;;5.10;2.53;;;41.10;14.80;;;;;;5123524;27;20456;-86
2022/07/19 14:28:29;;;;;;;2.83;2.63;;;41.10;14.80;;;;;;5097452;27;20479;-87
2022/07/19 14:30:56;;;;;;;5.53;2.70;;;40.90;15.30;;;;;;5123371;27;21050;-88
2022/07/19 14:33:23;;;;;;;4.17;2.60;;;41.10;15.00;;;;;;5123957;27;20437;-86
2022/07/19 14:35:54;;;;;;;5.73;2.30;;;41.10;15.10;;;;;;5122113;27;20830;-86
2022/07/19 14:38:23;;;;;;;5.80;2.77;;;41.10;15.00;;;;;;5103195;27;20547;-88
2022/07/19 14:40:50;;;;;;;3.23;2.93;;;41.20;15.00;;;;;;5124674;27;20476;-88
2022/07/19 14:43:17;;;;;;;5.30;2.70;;;41.20;14.90;;;;;;5125097;27;21155;-89
2022/07/19 14:45:43;;;;;;;5.13;2.50;;;41.40;14.80;;;;;;5101924;27;20440;-87